sensor_id;sensor_type;location;lat;lon;timestamp;temperature;humidity
6480;DHT22;71753;48.772;9.148;2023-09-19T00:00:07;16.91;81.68
6480;DHT22;71753;48.772;9.148;2023-09-19T00:02:38;16.92;81.13
6480;DHT22;71753;48.772;9.148;2023-09-19T00:05:05;16.93;81.14
6480;DHT22;71753;48.772;9.148;2023-09-19T00:07:34;16.93;81.10
6480;DHT22;71753;48.772;9.148;2023-09-19T00:10:02;16.92;81.15
6480;DHT22;71753;48.772;9.148;2023-09-19T00:12:30;16.91;81.06
6480;DHT22;71753;48.772;9.148;2023-09-19T00:14:57;16.89;81.39
6480;DHT22;71753;48.772;9.148;2023-09-19T00:17:27;16.87;81.47
6480;DHT22;71753;48.772;9.148;2023-09-19T00:19:55;16.81;82.04
6480;DHT22;71753;48.772;9.148;2023-09-19T00:22:22;16.82;82.17
6480;DHT22;71753;48.772;9.148;2023-09-19T00:24:51;16.80;82.19
6480;DHT22;71753;48.772;9.148;2023-09-19T00:27:18;16.76;82.51
6480;DHT22;71753;48.772;9.148;2023-09-19T00:29:45;16.73;82.55
6480;DHT22;71753;48.772;9.148;2023-09-19T00:32:11;16.74;82.46
6480;DHT22;71753;48.772;9.148;2023-09-19T00:34:39;16.70;82.96
6480;DHT22;71753;48.772;9.148;2023-09-19T00:37:07;16.71;82.78
6480;DHT22;71753;48.772;9.148;2023-09-19T00:39:36;16.73;82.65
6480;DHT22;71753;48.772;9.148;2023-09-19T00:42:04;16.67;82.95
6480;DHT22;71753;48.772;9.148;2023-09-19T00:44:30;16.64;82.87
6480;DHT22;71753;48.772;9.148;2023-09-19T00:46:57;16.65;83.23
6480;DHT22;71753;48.772;9.148;2023-09-19T00:49:24;16.61;83.07
6480;DHT22;71753;48.772;9.148;2023-09-19T00:51:52;16.59;83.22
6480;DHT22;71753;48.772;9.148;2023-09-19T00:54:19;16.55;83.82
6480;DHT22;71753;48.772;9.148;2023-09-19T00:56:46;16.52;84.00
6480;DHT22;71753;48.772;9.148;2023-09-19T00:59:14;16.51;83.73
6480;DHT22;71753;48.772;9.148;2023-09-19T01:01:41;16.50;83.96
6480;DHT22;71753;48.772;9.148;2023-09-19T01:04:11;16.48;83.97
6480;DHT22;71753;48.772;9.148;2023-09-19T01:06:38;16.47;83.98
6480;DHT22;71753;48.772;9.148;2023-09-19T01:09:06;16.43;84.39
6480;DHT22;71753;48.772;9.148;2023-09-19T01:11:37;16.41;84.71
6480;DHT22;71753;48.772;9.148;2023-09-19T01:14:14;16.43;84.19
6480;DHT22;71753;48.772;9.148;2023-09-19T01:16:48;16.45;84.11
6480;DHT22;71753;48.772;9.148;2023-09-19T01:22:16;16.45;83.44
6480;DHT22;71753;48.772;9.148;2023-09-19T01:25:29;16.50;83.11
6480;DHT22;71753;48.772;9.148;2023-09-19T01:28:27;16.58;82.47
6480;DHT22;71753;48.772;9.148;2023-09-19T01:30:58;16.58;82.04
6480;DHT22;71753;48.772;9.148;2023-09-19T01:33:25;16.62;81.27
6480;DHT22;71753;48.772;9.148;2023-09-19T01:35:52;16.63;81.52
6480;DHT22;71753;48.772;9.148;2023-09-19T01:38:23;16.67;81.23
6480;DHT22;71753;48.772;9.148;2023-09-19T01:40:57;16.73;80.14
6480;DHT22;71753;48.772;9.148;2023-09-19T01:43:28;16.77;79.97
6480;DHT22;71753;48.772;9.148;2023-09-19T01:46:03;16.77;79.97
6480;DHT22;71753;48.772;9.148;2023-09-19T01:48:36;16.75;80.20
6480;DHT22;71753;48.772;9.148;2023-09-19T01:51:06;16.75;80.02
6480;DHT22;71753;48.772;9.148;2023-09-19T01:53:36;16.70;80.37
6480;DHT22;71753;48.772;9.148;2023-09-19T01:56:08;16.67;80.40
6480;DHT22;71753;48.772;9.148;2023-09-19T01:58:40;16.66;80.41
6480;DHT22;71753;48.772;9.148;2023-09-19T02:01:11;16.63;80.52
6480;DHT22;71753;48.772;9.148;2023-09-19T02:03:40;16.62;80.64
6480;DHT22;71753;48.772;9.148;2023-09-19T02:06:13;16.61;80.43
6480;DHT22;71753;48.772;9.148;2023-09-19T02:08:41;16.56;80.82
6480;DHT22;71753;48.772;9.148;2023-09-19T02:11:07;16.54;80.79
6480;DHT22;71753;48.772;9.148;2023-09-19T02:13:34;16.48;81.19
6480;DHT22;71753;48.772;9.148;2023-09-19T02:16:01;16.44;81.32
6480;DHT22;71753;48.772;9.148;2023-09-19T02:18:31;16.39;81.46
6480;DHT22;71753;48.772;9.148;2023-09-19T02:21:00;16.37;81.64
6480;DHT22;71753;48.772;9.148;2023-09-19T02:23:27;16.29;81.97
6480;DHT22;71753;48.772;9.148;2023-09-19T02:25:56;16.29;81.87
6480;DHT22;71753;48.772;9.148;2023-09-19T02:28:23;16.33;81.61
6480;DHT22;71753;48.772;9.148;2023-09-19T02:30:52;16.28;81.92
6480;DHT22;71753;48.772;9.148;2023-09-19T02:33:18;16.21;82.12
6480;DHT22;71753;48.772;9.148;2023-09-19T02:35:46;16.17;82.44
6480;DHT22;71753;48.772;9.148;2023-09-19T02:38:13;16.13;82.43
6480;DHT22;71753;48.772;9.148;2023-09-19T02:40:43;16.06;82.93
6480;DHT22;71753;48.772;9.148;2023-09-19T02:43:10;16.03;83.04
6480;DHT22;71753;48.772;9.148;2023-09-19T02:45:37;16.01;82.92
6480;DHT22;71753;48.772;9.148;2023-09-19T02:48:04;16.06;82.76
6480;DHT22;71753;48.772;9.148;2023-09-19T02:50:32;15.99;83.15
6480;DHT22;71753;48.772;9.148;2023-09-19T02:53:01;16.00;83.10
6480;DHT22;71753;48.772;9.148;2023-09-19T02:55:29;16.10;82.59
6480;DHT22;71753;48.772;9.148;2023-09-19T02:57:57;16.12;82.67
6480;DHT22;71753;48.772;9.148;2023-09-19T03:00:24;16.15;82.52
6480;DHT22;71753;48.772;9.148;2023-09-19T03:02:53;16.16;82.46
6480;DHT22;71753;48.772;9.148;2023-09-19T03:05:21;16.16;82.68
6480;DHT22;71753;48.772;9.148;2023-09-19T03:07:49;16.20;82.62
6480;DHT22;71753;48.772;9.148;2023-09-19T03:10:18;16.26;82.17
6480;DHT22;71753;48.772;9.148;2023-09-19T03:12:45;16.27;82.20
6480;DHT22;71753;48.772;9.148;2023-09-19T03:15:13;16.30;82.07
6480;DHT22;71753;48.772;9.148;2023-09-19T03:17:43;16.28;82.38
6480;DHT22;71753;48.772;9.148;2023-09-19T03:20:11;16.27;82.43
6480;DHT22;71753;48.772;9.148;2023-09-19T03:22:42;16.28;82.49
6480;DHT22;71753;48.772;9.148;2023-09-19T03:25:09;16.22;82.88
6480;DHT22;71753;48.772;9.148;2023-09-19T03:27:38;16.28;82.59
6480;DHT22;71753;48.772;9.148;2023-09-19T03:30:06;16.28;82.73
6480;DHT22;71753;48.772;9.148;2023-09-19T03:32:34;16.28;82.79
6480;DHT22;71753;48.772;9.148;2023-09-19T03:35:01;16.30;82.49
6480;DHT22;71753;48.772;9.148;2023-09-19T03:37:30;16.28;82.78
6480;DHT22;71753;48.772;9.148;2023-09-19T03:39:57;16.28;82.68
6480;DHT22;71753;48.772;9.148;2023-09-19T03:42:24;16.32;82.53
6480;DHT22;71753;48.772;9.148;2023-09-19T03:44:53;16.33;82.68
6480;DHT22;71753;48.772;9.148;2023-09-19T03:47:20;16.30;82.75
6480;DHT22;71753;48.772;9.148;2023-09-19T03:49:47;16.27;82.82
6480;DHT22;71753;48.772;9.148;2023-09-19T03:52:14;16.25;82.88
6480;DHT22;71753;48.772;9.148;2023-09-19T03:54:41;16.33;82.33
6480;DHT22;71753;48.772;9.148;2023-09-19T03:57:08;16.31;82.48
6480;DHT22;71753;48.772;9.148;2023-09-19T03:59:35;16.39;82.07
6480;DHT22;71753;48.772;9.148;2023-09-19T04:02:03;16.37;81.78
6480;DHT22;71753;48.772;9.148;2023-09-19T04:04:37;16.36;81.66
6480;DHT22;71753;48.772;9.148;2023-09-19T04:07:03;16.41;81.59
6480;DHT22;71753;48.772;9.148;2023-09-19T04:09:30;16.37;81.79
6480;DHT22;71753;48.772;9.148;2023-09-19T04:11:56;16.31;82.44
6480;DHT22;71753;48.772;9.148;2023-09-19T04:14:23;16.30;82.34
6480;DHT22;71753;48.772;9.148;2023-09-19T04:16:50;16.36;81.99
6480;DHT22;71753;48.772;9.148;2023-09-19T04:19:18;16.42;81.93
6480;DHT22;71753;48.772;9.148;2023-09-19T04:21:46;16.39;82.23
6480;DHT22;71753;48.772;9.148;2023-09-19T04:24:13;16.37;82.42
6480;DHT22;71753;48.772;9.148;2023-09-19T04:26:39;16.37;82.42
6480;DHT22;71753;48.772;9.148;2023-09-19T04:29:07;16.33;83.06
6480;DHT22;71753;48.772;9.148;2023-09-19T04:31:36;16.35;82.89
6480;DHT22;71753;48.772;9.148;2023-09-19T04:34:05;16.40;82.80
6480;DHT22;71753;48.772;9.148;2023-09-19T04:36:34;16.41;82.96
6480;DHT22;71753;48.772;9.148;2023-09-19T04:39:02;16.39;83.45
6480;DHT22;71753;48.772;9.148;2023-09-19T04:41:31;16.26;84.08
6480;DHT22;71753;48.772;9.148;2023-09-19T04:43:58;16.20;84.54
6480;DHT22;71753;48.772;9.148;2023-09-19T04:46:25;16.18;84.87
6480;DHT22;71753;48.772;9.148;2023-09-19T04:48:51;16.18;84.79
6480;DHT22;71753;48.772;9.148;2023-09-19T04:51:18;16.18;84.86
6480;DHT22;71753;48.772;9.148;2023-09-19T04:53:47;16.18;85.63
6480;DHT22;71753;48.772;9.148;2023-09-19T04:56:14;16.11;87.03
6480;DHT22;71753;48.772;9.148;2023-09-19T04:58:41;16.11;87.77
6480;DHT22;71753;48.772;9.148;2023-09-19T05:01:08;16.04;88.36
6480;DHT22;71753;48.772;9.148;2023-09-19T05:03:37;16.03;88.78
6480;DHT22;71753;48.772;9.148;2023-09-19T05:06:04;16.01;89.49
6480;DHT22;71753;48.772;9.148;2023-09-19T05:08:31;15.91;89.44
6480;DHT22;71753;48.772;9.148;2023-09-19T05:11:01;15.90;89.92
6480;DHT22;71753;48.772;9.148;2023-09-19T05:13:28;15.86;90.48
6480;DHT22;71753;48.772;9.148;2023-09-19T05:15:59;15.84;90.45
6480;DHT22;71753;48.772;9.148;2023-09-19T05:18:27;15.82;90.43
6480;DHT22;71753;48.772;9.148;2023-09-19T05:20:53;15.83;90.34
6480;DHT22;71753;48.772;9.148;2023-09-19T05:23:21;15.77;90.63
6480;DHT22;71753;48.772;9.148;2023-09-19T05:25:48;15.75;90.80
6480;DHT22;71753;48.772;9.148;2023-09-19T05:28:16;15.76;90.53
6480;DHT22;71753;48.772;9.148;2023-09-19T05:30:42;15.73;91.75
6480;DHT22;71753;48.772;9.148;2023-09-19T05:33:09;15.78;90.97
6480;DHT22;71753;48.772;9.148;2023-09-19T05:35:36;15.76;91.41
6480;DHT22;71753;48.772;9.148;2023-09-19T05:38:05;15.85;90.37
6480;DHT22;71753;48.772;9.148;2023-09-19T05:40:34;15.93;89.77
6480;DHT22;71753;48.772;9.148;2023-09-19T05:43:01;16.07;90.15
6480;DHT22;71753;48.772;9.148;2023-09-19T05:45:30;16.00;90.89
6480;DHT22;71753;48.772;9.148;2023-09-19T05:48:08;15.93;90.37
6480;DHT22;71753;48.772;9.148;2023-09-19T05:50:35;15.85;93.20
6480;DHT22;71753;48.772;9.148;2023-09-19T05:53:01;15.63;93.58
6480;DHT22;71753;48.772;9.148;2023-09-19T05:55:29;15.44;93.13
6480;DHT22;71753;48.772;9.148;2023-09-19T05:57:56;15.34;94.20
6480;DHT22;71753;48.772;9.148;2023-09-19T06:00:24;15.31;94.03
6480;DHT22;71753;48.772;9.148;2023-09-19T06:02:54;15.34;94.46
6480;DHT22;71753;48.772;9.148;2023-09-19T06:05:22;15.40;93.92
6480;DHT22;71753;48.772;9.148;2023-09-19T06:07:49;15.40;93.04
6480;DHT22;71753;48.772;9.148;2023-09-19T06:10:18;15.37;92.74
6480;DHT22;71753;48.772;9.148;2023-09-19T06:12:46;15.39;92.47
6480;DHT22;71753;48.772;9.148;2023-09-19T06:15:14;15.32;92.13
6480;DHT22;71753;48.772;9.148;2023-09-19T06:17:46;15.32;90.60
6480;DHT22;71753;48.772;9.148;2023-09-19T06:20:15;15.31;90.58
6480;DHT22;71753;48.772;9.148;2023-09-19T06:22:43;15.28;89.50
6480;DHT22;71753;48.772;9.148;2023-09-19T06:25:10;15.34;90.28
6480;DHT22;71753;48.772;9.148;2023-09-19T06:27:38;15.42;90.23
6480;DHT22;71753;48.772;9.148;2023-09-19T06:30:08;15.42;90.17
6480;DHT22;71753;48.772;9.148;2023-09-19T06:32:36;15.46;90.31
6480;DHT22;71753;48.772;9.148;2023-09-19T06:35:04;15.45;89.35
6480;DHT22;71753;48.772;9.148;2023-09-19T06:37:34;15.55;88.97
6480;DHT22;71753;48.772;9.148;2023-09-19T06:40:01;15.63;88.44
6480;DHT22;71753;48.772;9.148;2023-09-19T06:42:28;15.70;87.63
6480;DHT22;71753;48.772;9.148;2023-09-19T06:44:55;15.69;88.81
6480;DHT22;71753;48.772;9.148;2023-09-19T06:47:21;15.70;88.78
6480;DHT22;71753;48.772;9.148;2023-09-19T06:49:51;15.81;87.93
6480;DHT22;71753;48.772;9.148;2023-09-19T06:52:18;15.82;87.99
6480;DHT22;71753;48.772;9.148;2023-09-19T06:54:49;16.10;86.85
6480;DHT22;71753;48.772;9.148;2023-09-19T06:57:18;16.42;85.91
6480;DHT22;71753;48.772;9.148;2023-09-19T06:59:45;16.66;85.85
6480;DHT22;71753;48.772;9.148;2023-09-19T07:02:12;16.50;84.90
6480;DHT22;71753;48.772;9.148;2023-09-19T07:04:39;16.55;82.75
6480;DHT22;71753;48.772;9.148;2023-09-19T07:07:06;16.75;83.83
6480;DHT22;71753;48.772;9.148;2023-09-19T07:09:34;16.57;83.55
6480;DHT22;71753;48.772;9.148;2023-09-19T07:12:02;16.60;82.18
6480;DHT22;71753;48.772;9.148;2023-09-19T07:14:29;16.63;83.16
6480;DHT22;71753;48.772;9.148;2023-09-19T07:16:56;16.45;84.76
6480;DHT22;71753;48.772;9.148;2023-09-19T07:19:22;16.64;84.81
6480;DHT22;71753;48.772;9.148;2023-09-19T07:21:49;16.57;82.83
6480;DHT22;71753;48.772;9.148;2023-09-19T07:24:16;16.65;84.39
6480;DHT22;71753;48.772;9.148;2023-09-19T07:26:44;16.78;84.46
6480;DHT22;71753;48.772;9.148;2023-09-19T07:29:13;16.67;80.46
6480;DHT22;71753;48.772;9.148;2023-09-19T07:31:39;16.57;80.88
6480;DHT22;71753;48.772;9.148;2023-09-19T07:34:06;16.60;82.14
6480;DHT22;71753;48.772;9.148;2023-09-19T07:36:34;17.05;82.18
6480;DHT22;71753;48.772;9.148;2023-09-19T07:39:03;16.96;80.44
6480;DHT22;71753;48.772;9.148;2023-09-19T07:41:32;16.96;81.53
6480;DHT22;71753;48.772;9.148;2023-09-19T07:43:59;16.86;81.20
6480;DHT22;71753;48.772;9.148;2023-09-19T07:46:27;17.15;81.22
6480;DHT22;71753;48.772;9.148;2023-09-19T07:48:56;17.11;79.44
6480;DHT22;71753;48.772;9.148;2023-09-19T07:51:23;17.29;80.57
6480;DHT22;71753;48.772;9.148;2023-09-19T07:53:50;17.38;80.35
6480;DHT22;71753;48.772;9.148;2023-09-19T07:56:17;17.23;81.21
6480;DHT22;71753;48.772;9.148;2023-09-19T07:58:45;17.18;81.33
6480;DHT22;71753;48.772;9.148;2023-09-19T08:01:12;17.33;80.63
6480;DHT22;71753;48.772;9.148;2023-09-19T08:03:40;17.36;79.37
6480;DHT22;71753;48.772;9.148;2023-09-19T08:06:08;17.25;79.82
6480;DHT22;71753;48.772;9.148;2023-09-19T08:08:36;17.55;78.87
6480;DHT22;71753;48.772;9.148;2023-09-19T08:11:04;17.84;76.23
6480;DHT22;71753;48.772;9.148;2023-09-19T08:13:37;18.40;76.07
6480;DHT22;71753;48.772;9.148;2023-09-19T08:16:06;18.04;75.50
6480;DHT22;71753;48.772;9.148;2023-09-19T08:18:33;18.46;75.60
6480;DHT22;71753;48.772;9.148;2023-09-19T08:21:01;18.83;73.89
6480;DHT22;71753;48.772;9.148;2023-09-19T08:23:28;18.91;74.64
6480;DHT22;71753;48.772;9.148;2023-09-19T08:25:56;18.66;75.04
6480;DHT22;71753;48.772;9.148;2023-09-19T08:28:23;18.93;75.91
6480;DHT22;71753;48.772;9.148;2023-09-19T08:30:50;18.71;74.35
6480;DHT22;71753;48.772;9.148;2023-09-19T08:33:18;18.81;75.15
6480;DHT22;71753;48.772;9.148;2023-09-19T08:35:45;19.20;73.26
6480;DHT22;71753;48.772;9.148;2023-09-19T08:38:13;19.37;72.97
6480;DHT22;71753;48.772;9.148;2023-09-19T08:40:40;19.03;73.26
6480;DHT22;71753;48.772;9.148;2023-09-19T08:43:09;19.08;73.62
6480;DHT22;71753;48.772;9.148;2023-09-19T08:45:36;19.11;72.81
6480;DHT22;71753;48.772;9.148;2023-09-19T08:48:17;18.70;71.63
6480;DHT22;71753;48.772;9.148;2023-09-19T08:50:49;18.65;69.61
6480;DHT22;71753;48.772;9.148;2023-09-19T08:53:21;18.87;71.52
6480;DHT22;71753;48.772;9.148;2023-09-19T08:55:53;18.84;71.70
6480;DHT22;71753;48.772;9.148;2023-09-19T08:58:21;19.12;70.45
6480;DHT22;71753;48.772;9.148;2023-09-19T09:00:54;19.51;69.39
6480;DHT22;71753;48.772;9.148;2023-09-19T09:03:21;19.21;68.46
6480;DHT22;71753;48.772;9.148;2023-09-19T09:05:50;19.35;67.26
6480;DHT22;71753;48.772;9.148;2023-09-19T09:08:19;19.65;66.82
6480;DHT22;71753;48.772;9.148;2023-09-19T09:10:47;19.89;65.60
6480;DHT22;71753;48.772;9.148;2023-09-19T09:13:14;19.80;62.02
6480;DHT22;71753;48.772;9.148;2023-09-19T09:15:43;19.67;65.43
6480;DHT22;71753;48.772;9.148;2023-09-19T09:18:11;19.54;64.85
6480;DHT22;71753;48.772;9.148;2023-09-19T09:20:38;19.84;66.30
6480;DHT22;71753;48.772;9.148;2023-09-19T09:23:05;19.56;60.30
6480;DHT22;71753;48.772;9.148;2023-09-19T09:25:50;19.54;61.76
6480;DHT22;71753;48.772;9.148;2023-09-19T09:28:20;19.85;59.25
6480;DHT22;71753;48.772;9.148;2023-09-19T09:30:47;19.83;60.15
6480;DHT22;71753;48.772;9.148;2023-09-19T09:33:14;19.86;60.41
6480;DHT22;71753;48.772;9.148;2023-09-19T09:35:48;19.80;62.18
6480;DHT22;71753;48.772;9.148;2023-09-19T09:38:18;19.59;59.46
6480;DHT22;71753;48.772;9.148;2023-09-19T09:40:50;20.03;58.08
6480;DHT22;71753;48.772;9.148;2023-09-19T09:43:26;19.97;56.13
6480;DHT22;71753;48.772;9.148;2023-09-19T09:46:15;20.00;58.64
6480;DHT22;71753;48.772;9.148;2023-09-19T09:48:57;20.15;55.80
6480;DHT22;71753;48.772;9.148;2023-09-19T09:51:46;19.76;56.40
6480;DHT22;71753;48.772;9.148;2023-09-19T09:54:23;20.36;56.21
6480;DHT22;71753;48.772;9.148;2023-09-19T09:56:54;20.25;52.62
6480;DHT22;71753;48.772;9.148;2023-09-19T09:59:52;20.02;54.46
6480;DHT22;71753;48.772;9.148;2023-09-19T10:02:21;20.37;54.52
6480;DHT22;71753;48.772;9.148;2023-09-19T10:04:54;20.99;53.38
6480;DHT22;71753;48.772;9.148;2023-09-19T10:07:35;20.71;53.88
6480;DHT22;71753;48.772;9.148;2023-09-19T10:10:04;20.85;55.36
6480;DHT22;71753;48.772;9.148;2023-09-19T10:12:43;21.10;54.55
6480;DHT22;71753;48.772;9.148;2023-09-19T10:15:11;20.44;54.06
6480;DHT22;71753;48.772;9.148;2023-09-19T10:17:43;20.17;53.64
6480;DHT22;71753;48.772;9.148;2023-09-19T10:20:16;20.09;54.81
6480;DHT22;71753;48.772;9.148;2023-09-19T10:23:05;19.83;56.27
6480;DHT22;71753;48.772;9.148;2023-09-19T10:25:37;19.68;55.32
6480;DHT22;71753;48.772;9.148;2023-09-19T10:28:07;19.42;57.00
6480;DHT22;71753;48.772;9.148;2023-09-19T10:30:37;19.96;56.19
6480;DHT22;71753;48.772;9.148;2023-09-19T10:33:09;20.32;54.84
6480;DHT22;71753;48.772;9.148;2023-09-19T10:35:38;19.89;54.94
6480;DHT22;71753;48.772;9.148;2023-09-19T10:38:06;19.50;56.71
6480;DHT22;71753;48.772;9.148;2023-09-19T10:40:35;19.83;55.87
6480;DHT22;71753;48.772;9.148;2023-09-19T10:43:03;19.99;56.90
6480;DHT22;71753;48.772;9.148;2023-09-19T10:45:33;20.07;54.23
6480;DHT22;71753;48.772;9.148;2023-09-19T10:48:01;20.46;53.85
6480;DHT22;71753;48.772;9.148;2023-09-19T10:50:31;20.46;52.78
6480;DHT22;71753;48.772;9.148;2023-09-19T10:53:00;20.30;53.15
6480;DHT22;71753;48.772;9.148;2023-09-19T10:55:31;20.32;52.60
6480;DHT22;71753;48.772;9.148;2023-09-19T10:57:58;20.65;53.12
6480;DHT22;71753;48.772;9.148;2023-09-19T11:00:55;20.66;53.92
6480;DHT22;71753;48.772;9.148;2023-09-19T11:03:26;20.11;56.68
6480;DHT22;71753;48.772;9.148;2023-09-19T11:06:07;19.79;55.22
6480;DHT22;71753;48.772;9.148;2023-09-19T11:08:56;19.59;56.23
6480;DHT22;71753;48.772;9.148;2023-09-19T11:11:50;19.53;56.25
6480;DHT22;71753;48.772;9.148;2023-09-19T11:14:37;19.87;54.75
6480;DHT22;71753;48.772;9.148;2023-09-19T11:17:31;20.29;53.34
6480;DHT22;71753;48.772;9.148;2023-09-19T11:20:18;20.03;54.36
6480;DHT22;71753;48.772;9.148;2023-09-19T11:23:22;20.45;53.02
6480;DHT22;71753;48.772;9.148;2023-09-19T11:25:51;20.61;53.52
6480;DHT22;71753;48.772;9.148;2023-09-19T11:28:34;20.62;51.41
6480;DHT22;71753;48.772;9.148;2023-09-19T11:34:44;20.78;48.57
6480;DHT22;71753;48.772;9.148;2023-09-19T11:40:32;20.70;49.20
6480;DHT22;71753;48.772;9.148;2023-09-19T11:42:59;20.74;49.14
6480;DHT22;71753;48.772;9.148;2023-09-19T11:46:03;20.98;49.31
6480;DHT22;71753;48.772;9.148;2023-09-19T11:48:31;20.92;48.01
6480;DHT22;71753;48.772;9.148;2023-09-19T11:51:01;21.04;47.82
6480;DHT22;71753;48.772;9.148;2023-09-19T11:53:40;21.14;48.64
6480;DHT22;71753;48.772;9.148;2023-09-19T11:56:09;21.68;47.18
6480;DHT22;71753;48.772;9.148;2023-09-19T11:58:37;21.70;46.52
6480;DHT22;71753;48.772;9.148;2023-09-19T12:01:05;21.32;47.91
6480;DHT22;71753;48.772;9.148;2023-09-19T12:03:39;21.11;47.32
6480;DHT22;71753;48.772;9.148;2023-09-19T12:06:13;20.91;48.34
6480;DHT22;71753;48.772;9.148;2023-09-19T12:08:41;20.80;49.05
6480;DHT22;71753;48.772;9.148;2023-09-19T12:11:15;21.05;48.06
6480;DHT22;71753;48.772;9.148;2023-09-19T12:13:43;21.39;48.80
6480;DHT22;71753;48.772;9.148;2023-09-19T12:16:13;21.51;48.38
6480;DHT22;71753;48.772;9.148;2023-09-19T12:18:41;21.70;48.56
6480;DHT22;71753;48.772;9.148;2023-09-19T12:21:29;21.40;47.89
6480;DHT22;71753;48.772;9.148;2023-09-19T12:24:07;21.37;48.38
6480;DHT22;71753;48.772;9.148;2023-09-19T12:26:42;21.00;50.44
6480;DHT22;71753;48.772;9.148;2023-09-19T12:29:19;20.60;51.14
6480;DHT22;71753;48.772;9.148;2023-09-19T12:31:52;21.15;50.22
6480;DHT22;71753;48.772;9.148;2023-09-19T12:34:22;21.63;48.59
6480;DHT22;71753;48.772;9.148;2023-09-19T12:37:05;21.54;49.20
6480;DHT22;71753;48.772;9.148;2023-09-19T12:39:38;21.87;47.57
6480;DHT22;71753;48.772;9.148;2023-09-19T12:42:07;22.03;47.85
6480;DHT22;71753;48.772;9.148;2023-09-19T12:44:36;22.11;46.91
6480;DHT22;71753;48.772;9.148;2023-09-19T12:47:13;22.10;47.54
6480;DHT22;71753;48.772;9.148;2023-09-19T12:50:11;22.19;46.19
6480;DHT22;71753;48.772;9.148;2023-09-19T12:52:46;22.13;47.15
6480;DHT22;71753;48.772;9.148;2023-09-19T12:55:25;22.03;46.86
6480;DHT22;71753;48.772;9.148;2023-09-19T12:57:59;21.68;47.09
6480;DHT22;71753;48.772;9.148;2023-09-19T13:00:34;21.59;47.70
6480;DHT22;71753;48.772;9.148;2023-09-19T13:03:18;21.55;48.42
6480;DHT22;71753;48.772;9.148;2023-09-19T13:05:51;21.84;47.99
6480;DHT22;71753;48.772;9.148;2023-09-19T13:08:25;22.09;48.32
6480;DHT22;71753;48.772;9.148;2023-09-19T13:11:09;21.80;47.15
6480;DHT22;71753;48.772;9.148;2023-09-19T13:13:40;21.38;47.86
6480;DHT22;71753;48.772;9.148;2023-09-19T13:16:07;21.36;49.52
6480;DHT22;71753;48.772;9.148;2023-09-19T13:18:47;21.50;49.49
6480;DHT22;71753;48.772;9.148;2023-09-19T13:21:17;21.70;46.91
6480;DHT22;71753;48.772;9.148;2023-09-19T13:23:52;21.91;47.23
6480;DHT22;71753;48.772;9.148;2023-09-19T13:26:20;22.47;47.38
6480;DHT22;71753;48.772;9.148;2023-09-19T13:28:48;22.42;45.48
6480;DHT22;71753;48.772;9.148;2023-09-19T13:31:15;22.36;47.07
6480;DHT22;71753;48.772;9.148;2023-09-19T13:33:45;22.29;45.57
6480;DHT22;71753;48.772;9.148;2023-09-19T13:36:12;22.02;47.45
6480;DHT22;71753;48.772;9.148;2023-09-19T13:38:39;22.09;48.46
6480;DHT22;71753;48.772;9.148;2023-09-19T13:41:09;22.28;47.48
6480;DHT22;71753;48.772;9.148;2023-09-19T13:43:36;22.56;46.61
6480;DHT22;71753;48.772;9.148;2023-09-19T13:46:04;22.48;46.88
6480;DHT22;71753;48.772;9.148;2023-09-19T13:48:32;22.44;46.93
6480;DHT22;71753;48.772;9.148;2023-09-19T13:51:01;22.08;46.70
6480;DHT22;71753;48.772;9.148;2023-09-19T13:53:28;22.03;45.32
6480;DHT22;71753;48.772;9.148;2023-09-19T13:55:55;22.27;45.60
6480;DHT22;71753;48.772;9.148;2023-09-19T13:58:23;22.41;46.53
6480;DHT22;71753;48.772;9.148;2023-09-19T14:00:50;22.56;45.61
6480;DHT22;71753;48.772;9.148;2023-09-19T14:03:20;22.60;45.45
6480;DHT22;71753;48.772;9.148;2023-09-19T14:05:47;22.17;45.67
6480;DHT22;71753;48.772;9.148;2023-09-19T14:08:14;21.93;46.69
6480;DHT22;71753;48.772;9.148;2023-09-19T14:10:41;21.95;47.25
6480;DHT22;71753;48.772;9.148;2023-09-19T14:13:07;22.17;46.80
6480;DHT22;71753;48.772;9.148;2023-09-19T14:15:37;22.44;44.88
6480;DHT22;71753;48.772;9.148;2023-09-19T14:18:04;22.26;45.73
6480;DHT22;71753;48.772;9.148;2023-09-19T14:20:31;22.76;45.34
6480;DHT22;71753;48.772;9.148;2023-09-19T14:22:58;22.72;45.99
6480;DHT22;71753;48.772;9.148;2023-09-19T14:25:25;22.57;44.87
6480;DHT22;71753;48.772;9.148;2023-09-19T14:27:52;22.49;44.16
6480;DHT22;71753;48.772;9.148;2023-09-19T14:30:25;22.39;44.97
6480;DHT22;71753;48.772;9.148;2023-09-19T14:32:54;22.40;45.48
6480;DHT22;71753;48.772;9.148;2023-09-19T14:35:23;22.13;44.73
6480;DHT22;71753;48.772;9.148;2023-09-19T14:37:49;21.94;44.52
6480;DHT22;71753;48.772;9.148;2023-09-19T14:40:16;22.37;43.30
6480;DHT22;71753;48.772;9.148;2023-09-19T14:42:43;22.51;43.30
6480;DHT22;71753;48.772;9.148;2023-09-19T14:45:10;22.86;42.87
6480;DHT22;71753;48.772;9.148;2023-09-19T14:47:40;22.42;43.80
6480;DHT22;71753;48.772;9.148;2023-09-19T14:50:09;22.49;44.03
6480;DHT22;71753;48.772;9.148;2023-09-19T14:52:37;22.52;43.22
6480;DHT22;71753;48.772;9.148;2023-09-19T14:55:06;23.18;42.92
6480;DHT22;71753;48.772;9.148;2023-09-19T14:57:34;23.47;42.52
6480;DHT22;71753;48.772;9.148;2023-09-19T15:00:06;23.70;41.80
6480;DHT22;71753;48.772;9.148;2023-09-19T15:02:37;23.09;44.31
6480;DHT22;71753;48.772;9.148;2023-09-19T15:05:06;22.84;42.22
6480;DHT22;71753;48.772;9.148;2023-09-19T15:07:35;22.85;42.62
6480;DHT22;71753;48.772;9.148;2023-09-19T15:10:03;22.75;41.86
6480;DHT22;71753;48.772;9.148;2023-09-19T15:12:32;22.67;43.50
6480;DHT22;71753;48.772;9.148;2023-09-19T15:15:00;22.60;42.61
6480;DHT22;71753;48.772;9.148;2023-09-19T15:17:27;22.64;42.58
6480;DHT22;71753;48.772;9.148;2023-09-19T15:19:53;22.91;43.36
6480;DHT22;71753;48.772;9.148;2023-09-19T15:22:21;22.79;42.38
6480;DHT22;71753;48.772;9.148;2023-09-19T15:24:50;22.39;42.40
6480;DHT22;71753;48.772;9.148;2023-09-19T15:27:16;22.17;43.02
6480;DHT22;71753;48.772;9.148;2023-09-19T15:29:45;22.22;43.50
6480;DHT22;71753;48.772;9.148;2023-09-19T15:32:12;22.47;42.93
6480;DHT22;71753;48.772;9.148;2023-09-19T15:34:38;22.71;41.99
6480;DHT22;71753;48.772;9.148;2023-09-19T15:37:05;22.79;42.07
6480;DHT22;71753;48.772;9.148;2023-09-19T15:39:32;22.64;42.39
6480;DHT22;71753;48.772;9.148;2023-09-19T15:42:01;22.69;44.09
6480;DHT22;71753;48.772;9.148;2023-09-19T15:44:27;22.39;44.48
6480;DHT22;71753;48.772;9.148;2023-09-19T15:46:54;22.04;45.32
6480;DHT22;71753;48.772;9.148;2023-09-19T15:49:21;21.91;46.38
6480;DHT22;71753;48.772;9.148;2023-09-19T15:51:48;21.88;47.09
6480;DHT22;71753;48.772;9.148;2023-09-19T15:54:15;21.80;46.80
6480;DHT22;71753;48.772;9.148;2023-09-19T15:56:43;21.76;46.81
6480;DHT22;71753;48.772;9.148;2023-09-19T15:59:11;21.80;46.48
6480;DHT22;71753;48.772;9.148;2023-09-19T16:01:39;21.73;47.22
6480;DHT22;71753;48.772;9.148;2023-09-19T16:04:06;21.54;46.66
6480;DHT22;71753;48.772;9.148;2023-09-19T16:06:35;21.51;46.72
6480;DHT22;71753;48.772;9.148;2023-09-19T16:09:03;21.49;47.35
6480;DHT22;71753;48.772;9.148;2023-09-19T16:11:33;21.48;46.80